sensor_id;sensor_type;location;lat;lon;timestamp;temperature;humidity
10057;DHT22;5068;51.286;7.518;2022-08-21T00:00:33;13.70;60.30
10057;DHT22;5068;51.286;7.518;2022-08-21T00:02:24;13.70;60.90
10057;DHT22;5068;51.286;7.518;2022-08-21T00:04:05;13.60;60.20
10057;DHT22;5068;51.286;7.518;2022-08-21T00:05:50;13.60;60.00
10057;DHT22;5068;51.286;7.518;2022-08-21T00:07:31;13.60;60.10
10057;DHT22;5068;51.286;7.518;2022-08-21T00:09:12;13.50;59.90
10057;DHT22;5068;51.286;7.518;2022-08-21T00:10:47;13.50;60.00
10057;DHT22;5068;51.286;7.518;2022-08-21T00:12:21;13.50;60.10
10057;DHT22;5068;51.286;7.518;2022-08-21T00:13:57;13.50;60.20
10057;DHT22;5068;51.286;7.518;2022-08-21T00:15:37;13.40;60.20
10057;DHT22;5068;51.286;7.518;2022-08-21T00:17:17;13.40;60.40
10057;DHT22;5068;51.286;7.518;2022-08-21T00:18:54;13.40;60.50
10057;DHT22;5068;51.286;7.518;2022-08-21T00:20:29;13.40;60.60
10057;DHT22;5068;51.286;7.518;2022-08-21T00:22:10;13.30;60.60
10057;DHT22;5068;51.286;7.518;2022-08-21T00:23:45;13.30;60.70
10057;DHT22;5068;51.286;7.518;2022-08-21T00:25:19;13.30;60.80
10057;DHT22;5068;51.286;7.518;2022-08-21T00:26:57;13.30;60.90
10057;DHT22;5068;51.286;7.518;2022-08-21T00:28:36;13.20;60.80
10057;DHT22;5068;51.286;7.518;2022-08-21T00:30:18;13.20;60.70
10057;DHT22;5068;51.286;7.518;2022-08-21T00:31:54;13.20;60.70
10057;DHT22;5068;51.286;7.518;2022-08-21T00:33:34;13.20;60.50
10057;DHT22;5068;51.286;7.518;2022-08-21T00:35:09;13.20;60.70
10057;DHT22;5068;51.286;7.518;2022-08-21T00:36:46;13.10;60.60
10057;DHT22;5068;51.286;7.518;2022-08-21T00:38:23;13.10;60.50
10057;DHT22;5068;51.286;7.518;2022-08-21T00:39:58;13.10;60.60
10057;DHT22;5068;51.286;7.518;2022-08-21T00:41:32;13.10;60.80
10057;DHT22;5068;51.286;7.518;2022-08-21T00:43:11;13.10;61.00
10057;DHT22;5068;51.286;7.518;2022-08-21T00:44:50;13.00;60.90
10057;DHT22;5068;51.286;7.518;2022-08-21T00:46:25;13.00;61.00
10057;DHT22;5068;51.286;7.518;2022-08-21T00:48:00;13.00;61.10
10057;DHT22;5068;51.286;7.518;2022-08-21T00:49:37;13.00;61.00
10057;DHT22;5068;51.286;7.518;2022-08-21T00:51:19;12.90;61.10
10057;DHT22;5068;51.286;7.518;2022-08-21T00:52:58;12.90;61.80
10057;DHT22;5068;51.286;7.518;2022-08-21T00:54:33;12.90;61.10
10057;DHT22;5068;51.286;7.518;2022-08-21T00:56:13;12.90;61.00
10057;DHT22;5068;51.286;7.518;2022-08-21T00:57:54;12.80;61.00
10057;DHT22;5068;51.286;7.518;2022-08-21T00:59:34;12.80;60.90
10057;DHT22;5068;51.286;7.518;2022-08-21T01:01:13;12.80;61.00
10057;DHT22;5068;51.286;7.518;2022-08-21T01:03:00;12.80;61.00
10057;DHT22;5068;51.286;7.518;2022-08-21T01:04:44;12.80;61.30
10057;DHT22;5068;51.286;7.518;2022-08-21T01:06:20;12.70;61.10
10057;DHT22;5068;51.286;7.518;2022-08-21T01:07:58;12.70;61.00
10057;DHT22;5068;51.286;7.518;2022-08-21T01:09:36;12.70;61.10
10057;DHT22;5068;51.286;7.518;2022-08-21T01:11:15;12.70;61.20
10057;DHT22;5068;51.286;7.518;2022-08-21T01:12:56;12.70;61.20
10057;DHT22;5068;51.286;7.518;2022-08-21T01:14:35;12.60;61.00
10057;DHT22;5068;51.286;7.518;2022-08-21T01:16:18;12.60;61.00
10057;DHT22;5068;51.286;7.518;2022-08-21T01:18:08;12.60;61.10
10057;DHT22;5068;51.286;7.518;2022-08-21T01:19:47;12.50;61.20
10057;DHT22;5068;51.286;7.518;2022-08-21T01:21:26;12.50;61.10
10057;DHT22;5068;51.286;7.518;2022-08-21T01:23:02;12.50;61.20
10057;DHT22;5068;51.286;7.518;2022-08-21T01:24:39;12.50;61.30
10057;DHT22;5068;51.286;7.518;2022-08-21T01:26:15;12.50;61.40
10057;DHT22;5068;51.286;7.518;2022-08-21T01:27:52;12.40;61.40
10057;DHT22;5068;51.286;7.518;2022-08-21T01:29:36;12.40;61.70
10057;DHT22;5068;51.286;7.518;2022-08-21T01:31:13;12.40;62.00
10057;DHT22;5068;51.286;7.518;2022-08-21T01:32:59;12.40;62.00
10057;DHT22;5068;51.286;7.518;2022-08-21T01:34:39;12.40;62.00
10057;DHT22;5068;51.286;7.518;2022-08-21T01:36:17;12.40;62.10
10057;DHT22;5068;51.286;7.518;2022-08-21T01:37:57;12.30;62.10
10057;DHT22;5068;51.286;7.518;2022-08-21T01:39:32;12.30;62.40
10057;DHT22;5068;51.286;7.518;2022-08-21T01:41:05;12.30;62.50
10057;DHT22;5068;51.286;7.518;2022-08-21T01:42:50;12.30;62.70
10057;DHT22;5068;51.286;7.518;2022-08-21T01:44:25;12.30;62.80
10057;DHT22;5068;51.286;7.518;2022-08-21T01:46:02;12.30;62.90
10057;DHT22;5068;51.286;7.518;2022-08-21T01:47:36;12.20;63.10
10057;DHT22;5068;51.286;7.518;2022-08-21T01:49:11;12.30;63.20
10057;DHT22;5068;51.286;7.518;2022-08-21T01:50:49;12.20;63.10
10057;DHT22;5068;51.286;7.518;2022-08-21T01:52:28;12.30;63.40
10057;DHT22;5068;51.286;7.518;2022-08-21T01:54:09;12.30;63.20
10057;DHT22;5068;51.286;7.518;2022-08-21T01:55:43;12.20;63.20
10057;DHT22;5068;51.286;7.518;2022-08-21T01:57:16;12.30;63.40
10057;DHT22;5068;51.286;7.518;2022-08-21T01:58:52;12.20;63.50
10057;DHT22;5068;51.286;7.518;2022-08-21T02:00:26;12.20;63.60
10057;DHT22;5068;51.286;7.518;2022-08-21T02:02:00;12.20;63.60
10057;DHT22;5068;51.286;7.518;2022-08-21T02:03:40;12.20;63.70
10057;DHT22;5068;51.286;7.518;2022-08-21T02:05:20;12.20;63.70
10057;DHT22;5068;51.286;7.518;2022-08-21T02:06:55;12.20;63.80
10057;DHT22;5068;51.286;7.518;2022-08-21T02:08:33;12.20;63.90
10057;DHT22;5068;51.286;7.518;2022-08-21T02:10:10;12.20;63.90
10057;DHT22;5068;51.286;7.518;2022-08-21T02:11:48;12.20;64.00
10057;DHT22;5068;51.286;7.518;2022-08-21T02:13:23;12.20;63.90
10057;DHT22;5068;51.286;7.518;2022-08-21T02:14:59;12.20;64.10
10057;DHT22;5068;51.286;7.518;2022-08-21T02:16:33;12.20;64.10
10057;DHT22;5068;51.286;7.518;2022-08-21T02:18:12;12.20;64.10
10057;DHT22;5068;51.286;7.518;2022-08-21T02:19:50;12.20;64.30
10057;DHT22;5068;51.286;7.518;2022-08-21T02:21:23;12.20;64.40
10057;DHT22;5068;51.286;7.518;2022-08-21T02:22:57;12.20;64.40
10057;DHT22;5068;51.286;7.518;2022-08-21T02:24:38;12.20;64.50
10057;DHT22;5068;51.286;7.518;2022-08-21T02:26:27;12.20;64.70
10057;DHT22;5068;51.286;7.518;2022-08-21T02:28:05;12.30;64.80
10057;DHT22;5068;51.286;7.518;2022-08-21T02:29:40;12.20;64.90
10057;DHT22;5068;51.286;7.518;2022-08-21T02:31:13;12.20;65.00
10057;DHT22;5068;51.286;7.518;2022-08-21T02:32:47;12.20;65.00
10057;DHT22;5068;51.286;7.518;2022-08-21T02:34:20;12.20;65.10
10057;DHT22;5068;51.286;7.518;2022-08-21T02:36:00;12.20;65.10
10057;DHT22;5068;51.286;7.518;2022-08-21T02:37:34;12.20;65.10
10057;DHT22;5068;51.286;7.518;2022-08-21T02:39:09;12.30;65.20
10057;DHT22;5068;51.286;7.518;2022-08-21T02:40:45;12.30;65.20
10057;DHT22;5068;51.286;7.518;2022-08-21T02:42:24;12.30;65.20
10057;DHT22;5068;51.286;7.518;2022-08-21T02:43:59;12.30;66.00
10057;DHT22;5068;51.286;7.518;2022-08-21T02:45:37;12.30;65.20
10057;DHT22;5068;51.286;7.518;2022-08-21T02:47:11;12.30;65.20
10057;DHT22;5068;51.286;7.518;2022-08-21T02:48:46;12.30;65.20
10057;DHT22;5068;51.286;7.518;2022-08-21T02:50:21;12.30;65.20
10057;DHT22;5068;51.286;7.518;2022-08-21T02:52:00;12.30;65.20
10057;DHT22;5068;51.286;7.518;2022-08-21T02:53:35;12.30;65.10
10057;DHT22;5068;51.286;7.518;2022-08-21T02:55:09;12.30;65.20
10057;DHT22;5068;51.286;7.518;2022-08-21T02:56:42;12.30;65.10
10057;DHT22;5068;51.286;7.518;2022-08-21T02:58:21;12.30;65.20
10057;DHT22;5068;51.286;7.518;2022-08-21T02:59:56;12.30;65.20
10057;DHT22;5068;51.286;7.518;2022-08-21T03:01:34;12.30;65.20
10057;DHT22;5068;51.286;7.518;2022-08-21T03:03:09;12.30;65.20
10057;DHT22;5068;51.286;7.518;2022-08-21T03:04:45;12.30;65.20
10057;DHT22;5068;51.286;7.518;2022-08-21T03:06:22;12.20;65.10
10057;DHT22;5068;51.286;7.518;2022-08-21T03:08:01;12.30;65.20
10057;DHT22;5068;51.286;7.518;2022-08-21T03:09:41;12.30;65.20
10057;DHT22;5068;51.286;7.518;2022-08-21T03:11:26;12.20;65.10
10057;DHT22;5068;51.286;7.518;2022-08-21T03:13:05;12.20;65.00
10057;DHT22;5068;51.286;7.518;2022-08-21T03:14:41;12.20;65.10
10057;DHT22;5068;51.286;7.518;2022-08-21T03:16:15;12.20;65.10
10057;DHT22;5068;51.286;7.518;2022-08-21T03:17:50;12.20;65.00
10057;DHT22;5068;51.286;7.518;2022-08-21T03:19:23;12.20;65.00
10057;DHT22;5068;51.286;7.518;2022-08-21T03:20:57;12.20;64.80
10057;DHT22;5068;51.286;7.518;2022-08-21T03:22:37;12.20;64.70
10057;DHT22;5068;51.286;7.518;2022-08-21T03:24:12;12.20;65.40
10057;DHT22;5068;51.286;7.518;2022-08-21T03:25:51;12.20;64.40
10057;DHT22;5068;51.286;7.518;2022-08-21T03:27:27;12.20;64.20
10057;DHT22;5068;51.286;7.518;2022-08-21T03:29:05;12.20;64.20
10057;DHT22;5068;51.286;7.518;2022-08-21T03:30:43;12.20;64.10
10057;DHT22;5068;51.286;7.518;2022-08-21T03:32:17;12.10;63.90
10057;DHT22;5068;51.286;7.518;2022-08-21T03:33:51;12.10;63.80
10057;DHT22;5068;51.286;7.518;2022-08-21T03:35:27;12.10;63.90
10057;DHT22;5068;51.286;7.518;2022-08-21T03:37:01;12.10;63.90
10057;DHT22;5068;51.286;7.518;2022-08-21T03:38:37;12.10;63.90
10057;DHT22;5068;51.286;7.518;2022-08-21T03:40:16;12.10;63.80
10057;DHT22;5068;51.286;7.518;2022-08-21T03:41:52;12.10;63.80
10057;DHT22;5068;51.286;7.518;2022-08-21T03:43:27;12.00;63.70
10057;DHT22;5068;51.286;7.518;2022-08-21T03:45:03;12.00;63.70
10057;DHT22;5068;51.286;7.518;2022-08-21T03:46:40;12.00;63.70
10057;DHT22;5068;51.286;7.518;2022-08-21T03:48:16;12.00;63.70
10057;DHT22;5068;51.286;7.518;2022-08-21T03:49:49;12.00;63.80
10057;DHT22;5068;51.286;7.518;2022-08-21T03:51:26;11.90;63.70
10057;DHT22;5068;51.286;7.518;2022-08-21T03:53:00;11.90;63.60
10057;DHT22;5068;51.286;7.518;2022-08-21T03:54:36;11.90;64.40
10057;DHT22;5068;51.286;7.518;2022-08-21T03:56:14;11.90;63.60
10057;DHT22;5068;51.286;7.518;2022-08-21T03:57:50;11.90;63.60
10057;DHT22;5068;51.286;7.518;2022-08-21T03:59:25;11.80;63.50
10057;DHT22;5068;51.286;7.518;2022-08-21T04:01:01;11.80;63.60
10057;DHT22;5068;51.286;7.518;2022-08-21T04:02:42;11.80;63.70
10057;DHT22;5068;51.286;7.518;2022-08-21T04:04:19;11.80;63.60
10057;DHT22;5068;51.286;7.518;2022-08-21T04:05:56;11.80;63.60
10057;DHT22;5068;51.286;7.518;2022-08-21T04:07:31;11.70;63.60
10057;DHT22;5068;51.286;7.518;2022-08-21T04:09:05;11.80;63.70
10057;DHT22;5068;51.286;7.518;2022-08-21T04:10:44;11.70;63.70
10057;DHT22;5068;51.286;7.518;2022-08-21T04:12:25;11.70;64.00
10057;DHT22;5068;51.286;7.518;2022-08-21T04:13:58;11.70;64.10
10057;DHT22;5068;51.286;7.518;2022-08-21T04:15:35;11.70;64.20
10057;DHT22;5068;51.286;7.518;2022-08-21T04:17:15;11.70;64.40
10057;DHT22;5068;51.286;7.518;2022-08-21T04:18:51;11.70;64.30
10057;DHT22;5068;51.286;7.518;2022-08-21T04:20:25;11.70;64.40
10057;DHT22;5068;51.286;7.518;2022-08-21T04:21:59;11.70;64.50
10057;DHT22;5068;51.286;7.518;2022-08-21T04:23:33;11.60;64.40
10057;DHT22;5068;51.286;7.518;2022-08-21T04:25:08;11.60;64.40
10057;DHT22;5068;51.286;7.518;2022-08-21T04:26:44;11.60;64.40
10057;DHT22;5068;51.286;7.518;2022-08-21T04:28:17;11.60;64.50
10057;DHT22;5068;51.286;7.518;2022-08-21T04:29:51;11.60;64.40
10057;DHT22;5068;51.286;7.518;2022-08-21T04:31:24;11.60;64.40
10057;DHT22;5068;51.286;7.518;2022-08-21T04:32:58;11.60;64.40
10057;DHT22;5068;51.286;7.518;2022-08-21T04:34:33;11.60;64.00
10057;DHT22;5068;51.286;7.518;2022-08-21T04:36:07;11.50;63.80
10057;DHT22;5068;51.286;7.518;2022-08-21T04:37:42;11.50;63.70
10057;DHT22;5068;51.286;7.518;2022-08-21T04:39:16;11.50;63.70
10057;DHT22;5068;51.286;7.518;2022-08-21T04:40:51;11.50;63.60
10057;DHT22;5068;51.286;7.518;2022-08-21T04:42:26;11.50;63.60
10057;DHT22;5068;51.286;7.518;2022-08-21T04:44:01;11.50;63.60
10057;DHT22;5068;51.286;7.518;2022-08-21T04:45:41;11.50;63.70
10057;DHT22;5068;51.286;7.518;2022-08-21T04:47:18;11.50;63.80
10057;DHT22;5068;51.286;7.518;2022-08-21T04:48:52;11.40;63.70
10057;DHT22;5068;51.286;7.518;2022-08-21T04:50:34;11.40;64.00
10057;DHT22;5068;51.286;7.518;2022-08-21T04:52:14;11.40;64.20
10057;DHT22;5068;51.286;7.518;2022-08-21T04:53:52;11.40;64.20
10057;DHT22;5068;51.286;7.518;2022-08-21T04:55:29;11.40;64.20
10057;DHT22;5068;51.286;7.518;2022-08-21T04:57:06;11.40;64.20
10057;DHT22;5068;51.286;7.518;2022-08-21T04:58:42;11.40;64.40
10057;DHT22;5068;51.286;7.518;2022-08-21T05:00:18;11.40;64.30
10057;DHT22;5068;51.286;7.518;2022-08-21T05:01:57;11.40;64.50
10057;DHT22;5068;51.286;7.518;2022-08-21T05:03:33;11.30;64.50
10057;DHT22;5068;51.286;7.518;2022-08-21T05:05:09;11.40;64.60
10057;DHT22;5068;51.286;7.518;2022-08-21T05:06:48;11.30;64.50
10057;DHT22;5068;51.286;7.518;2022-08-21T05:08:27;11.30;64.60
10057;DHT22;5068;51.286;7.518;2022-08-21T05:10:05;11.30;64.60
10057;DHT22;5068;51.286;7.518;2022-08-21T05:11:41;11.30;64.60
10057;DHT22;5068;51.286;7.518;2022-08-21T05:13:15;11.30;64.50
10057;DHT22;5068;51.286;7.518;2022-08-21T05:14:49;11.30;64.40
10057;DHT22;5068;51.286;7.518;2022-08-21T05:16:25;11.30;64.10
10057;DHT22;5068;51.286;7.518;2022-08-21T05:18:08;11.30;64.20
10057;DHT22;5068;51.286;7.518;2022-08-21T05:19:45;11.30;64.50
10057;DHT22;5068;51.286;7.518;2022-08-21T05:21:21;11.30;64.80
10057;DHT22;5068;51.286;7.518;2022-08-21T05:23:01;11.30;65.00
10057;DHT22;5068;51.286;7.518;2022-08-21T05:24:41;11.30;65.20
10057;DHT22;5068;51.286;7.518;2022-08-21T05:26:19;11.30;65.20
10057;DHT22;5068;51.286;7.518;2022-08-21T05:27:53;11.30;65.30
10057;DHT22;5068;51.286;7.518;2022-08-21T05:29:29;11.20;66.00
10057;DHT22;5068;51.286;7.518;2022-08-21T05:31:05;11.20;65.10
10057;DHT22;5068;51.286;7.518;2022-08-21T05:32:43;11.20;65.10
10057;DHT22;5068;51.286;7.518;2022-08-21T05:34:19;11.20;65.10
10057;DHT22;5068;51.286;7.518;2022-08-21T05:35:54;11.20;65.20
10057;DHT22;5068;51.286;7.518;2022-08-21T05:37:29;11.20;65.20
10057;DHT22;5068;51.286;7.518;2022-08-21T05:39:07;11.20;65.30
10057;DHT22;5068;51.286;7.518;2022-08-21T05:40:41;11.20;65.60
10057;DHT22;5068;51.286;7.518;2022-08-21T05:42:15;11.20;65.50
10057;DHT22;5068;51.286;7.518;2022-08-21T05:43:49;11.20;65.60
10057;DHT22;5068;51.286;7.518;2022-08-21T05:45:32;11.20;65.70
10057;DHT22;5068;51.286;7.518;2022-08-21T05:47:14;11.20;66.20
10057;DHT22;5068;51.286;7.518;2022-08-21T05:48:48;11.20;65.90
10057;DHT22;5068;51.286;7.518;2022-08-21T05:50:24;11.20;66.00
10057;DHT22;5068;51.286;7.518;2022-08-21T05:52:06;11.20;66.10
10057;DHT22;5068;51.286;7.518;2022-08-21T05:53:42;11.20;66.30
10057;DHT22;5068;51.286;7.518;2022-08-21T05:55:17;11.20;66.50
10057;DHT22;5068;51.286;7.518;2022-08-21T05:56:55;11.20;66.70
10057;DHT22;5068;51.286;7.518;2022-08-21T05:58:30;11.30;66.90
10057;DHT22;5068;51.286;7.518;2022-08-21T06:00:12;11.30;67.00
10057;DHT22;5068;51.286;7.518;2022-08-21T06:01:46;11.30;67.20
10057;DHT22;5068;51.286;7.518;2022-08-21T06:03:21;11.30;67.20
10057;DHT22;5068;51.286;7.518;2022-08-21T06:04:57;11.30;67.20
10057;DHT22;5068;51.286;7.518;2022-08-21T06:06:36;11.30;67.30
10057;DHT22;5068;51.286;7.518;2022-08-21T06:08:13;11.30;67.40
10057;DHT22;5068;51.286;7.518;2022-08-21T06:09:52;11.30;67.50
10057;DHT22;5068;51.286;7.518;2022-08-21T06:11:27;11.40;67.80
10057;DHT22;5068;51.286;7.518;2022-08-21T06:13:00;11.40;67.90
10057;DHT22;5068;51.286;7.518;2022-08-21T06:14:37;11.40;68.00
10057;DHT22;5068;51.286;7.518;2022-08-21T06:16:16;11.50;68.20
10057;DHT22;5068;51.286;7.518;2022-08-21T06:17:52;11.50;68.40
10057;DHT22;5068;51.286;7.518;2022-08-21T06:19:26;11.60;68.50
10057;DHT22;5068;51.286;7.518;2022-08-21T06:20:59;11.60;68.50
10057;DHT22;5068;51.286;7.518;2022-08-21T06:22:35;11.60;68.60
10057;DHT22;5068;51.286;7.518;2022-08-21T06:24:14;11.70;68.70
10057;DHT22;5068;51.286;7.518;2022-08-21T06:25:47;11.70;68.70
10057;DHT22;5068;51.286;7.518;2022-08-21T06:27:22;11.80;68.80
10057;DHT22;5068;51.286;7.518;2022-08-21T06:28:57;11.80;68.90
10057;DHT22;5068;51.286;7.518;2022-08-21T06:30:37;11.90;69.10
10057;DHT22;5068;51.286;7.518;2022-08-21T06:32:13;11.90;69.30
10057;DHT22;5068;51.286;7.518;2022-08-21T06:33:48;12.00;69.40
10057;DHT22;5068;51.286;7.518;2022-08-21T06:35:22;12.00;69.50
10057;DHT22;5068;51.286;7.518;2022-08-21T06:37:00;12.00;69.70
10057;DHT22;5068;51.286;7.518;2022-08-21T06:38:36;12.10;69.90
10057;DHT22;5068;51.286;7.518;2022-08-21T06:40:11;12.20;70.10
10057;DHT22;5068;51.286;7.518;2022-08-21T06:41:47;12.20;70.20
10057;DHT22;5068;51.286;7.518;2022-08-21T06:43:27;12.30;70.30
10057;DHT22;5068;51.286;7.518;2022-08-21T06:45:13;12.30;70.50
10057;DHT22;5068;51.286;7.518;2022-08-21T06:46:47;12.40;70.50
10057;DHT22;5068;51.286;7.518;2022-08-21T06:48:20;12.50;70.50
10057;DHT22;5068;51.286;7.518;2022-08-21T06:49:55;12.50;70.60
10057;DHT22;5068;51.286;7.518;2022-08-21T06:51:36;12.60;70.70
10057;DHT22;5068;51.286;7.518;2022-08-21T06:53:15;12.70;71.00
10057;DHT22;5068;51.286;7.518;2022-08-21T06:54:54;12.80;71.30
10057;DHT22;5068;51.286;7.518;2022-08-21T06:56:32;12.80;71.20
10057;DHT22;5068;51.286;7.518;2022-08-21T06:58:09;12.90;71.20
10057;DHT22;5068;51.286;7.518;2022-08-21T06:59:43;13.00;71.30
10057;DHT22;5068;51.286;7.518;2022-08-21T07:01:24;13.00;71.30
10057;DHT22;5068;51.286;7.518;2022-08-21T07:03:16;13.10;71.40
10057;DHT22;5068;51.286;7.518;2022-08-21T07:05:02;13.20;71.60
10057;DHT22;5068;51.286;7.518;2022-08-21T07:06:49;13.30;71.50
10057;DHT22;5068;51.286;7.518;2022-08-21T07:08:26;13.40;71.50
10057;DHT22;5068;51.286;7.518;2022-08-21T07:10:01;13.50;71.60
10057;DHT22;5068;51.286;7.518;2022-08-21T07:11:35;13.60;71.70
10057;DHT22;5068;51.286;7.518;2022-08-21T07:13:19;13.60;71.50
10057;DHT22;5068;51.286;7.518;2022-08-21T07:14:53;13.70;71.50
10057;DHT22;5068;51.286;7.518;2022-08-21T07:16:27;13.80;71.80
10057;DHT22;5068;51.286;7.518;2022-08-21T07:18:01;13.90;71.80
10057;DHT22;5068;51.286;7.518;2022-08-21T07:19:34;13.90;71.70
10057;DHT22;5068;51.286;7.518;2022-08-21T07:21:10;14.00;71.70
10057;DHT22;5068;51.286;7.518;2022-08-21T07:22:47;14.10;71.80
10057;DHT22;5068;51.286;7.518;2022-08-21T07:24:20;14.20;71.80
10057;DHT22;5068;51.286;7.518;2022-08-21T07:25:54;14.30;71.70
10057;DHT22;5068;51.286;7.518;2022-08-21T07:27:28;14.30;71.70
10057;DHT22;5068;51.286;7.518;2022-08-21T07:29:01;14.40;71.80
10057;DHT22;5068;51.286;7.518;2022-08-21T07:30:37;14.50;72.00
10057;DHT22;5068;51.286;7.518;2022-08-21T07:32:21;14.60;72.20
10057;DHT22;5068;51.286;7.518;2022-08-21T07:34:01;14.70;72.20
10057;DHT22;5068;51.286;7.518;2022-08-21T07:35:34;14.80;71.90
10057;DHT22;5068;51.286;7.518;2022-08-21T07:37:11;14.90;71.80
10057;DHT22;5068;51.286;7.518;2022-08-21T07:38:44;15.00;71.70
10057;DHT22;5068;51.286;7.518;2022-08-21T07:40:24;15.10;71.80
10057;DHT22;5068;51.286;7.518;2022-08-21T07:41:57;15.30;72.00
10057;DHT22;5068;51.286;7.518;2022-08-21T07:43:40;15.30;71.70
10057;DHT22;5068;51.286;7.518;2022-08-21T07:45:21;15.50;71.30
10057;DHT22;5068;51.286;7.518;2022-08-21T07:46:58;15.60;71.10
10057;DHT22;5068;51.286;7.518;2022-08-21T07:48:33;15.70;70.90
10057;DHT22;5068;51.286;7.518;2022-08-21T07:50:07;15.80;70.60
10057;DHT22;5068;51.286;7.518;2022-08-21T07:51:41;15.90;69.90
10057;DHT22;5068;51.286;7.518;2022-08-21T07:53:18;16.00;69.20
10057;DHT22;5068;51.286;7.518;2022-08-21T07:54:52;16.10;69.30
10057;DHT22;5068;51.286;7.518;2022-08-21T07:56:29;16.20;68.90
10057;DHT22;5068;51.286;7.518;2022-08-21T07:58:04;16.30;68.40
10057;DHT22;5068;51.286;7.518;2022-08-21T07:59:38;16.50;68.10
10057;DHT22;5068;51.286;7.518;2022-08-21T08:01:12;16.50;67.30
10057;DHT22;5068;51.286;7.518;2022-08-21T08:02:49;16.70;66.80
10057;DHT22;5068;51.286;7.518;2022-08-21T08:04:24;16.70;65.70
10057;DHT22;5068;51.286;7.518;2022-08-21T08:06:00;16.90;65.50
10057;DHT22;5068;51.286;7.518;2022-08-21T08:07:36;17.00;65.20
10057;DHT22;5068;51.286;7.518;2022-08-21T08:09:10;17.10;64.80
10057;DHT22;5068;51.286;7.518;2022-08-21T08:10:49;17.20;64.50
10057;DHT22;5068;51.286;7.518;2022-08-21T08:12:26;17.30;64.00
10057;DHT22;5068;51.286;7.518;2022-08-21T08:14:02;17.40;63.90
10057;DHT22;5068;51.286;7.518;2022-08-21T08:15:41;17.50;63.30
10057;DHT22;5068;51.286;7.518;2022-08-21T08:17:16;17.70;62.80
10057;DHT22;5068;51.286;7.518;2022-08-21T08:18:57;17.70;62.60
10057;DHT22;5068;51.286;7.518;2022-08-21T08:20:32;17.90;61.90
10057;DHT22;5068;51.286;7.518;2022-08-21T08:22:14;17.90;62.00
10057;DHT22;5068;51.286;7.518;2022-08-21T08:23:54;18.10;61.40
10057;DHT22;5068;51.286;7.518;2022-08-21T08:25:27;18.20;62.10
10057;DHT22;5068;51.286;7.518;2022-08-21T08:27:07;18.30;61.50
10057;DHT22;5068;51.286;7.518;2022-08-21T08:28:42;18.40;61.10
10057;DHT22;5068;51.286;7.518;2022-08-21T08:30:21;18.50;60.90
10057;DHT22;5068;51.286;7.518;2022-08-21T08:31:58;18.60;60.60
10057;DHT22;5068;51.286;7.518;2022-08-21T08:33:36;18.70;60.00
10057;DHT22;5068;51.286;7.518;2022-08-21T08:35:14;18.80;59.40
10057;DHT22;5068;51.286;7.518;2022-08-21T08:36:48;18.90;58.90
10057;DHT22;5068;51.286;7.518;2022-08-21T08:38:24;19.00;58.60
10057;DHT22;5068;51.286;7.518;2022-08-21T08:40:03;19.10;58.20
10057;DHT22;5068;51.286;7.518;2022-08-21T08:41:37;19.20;58.30
10057;DHT22;5068;51.286;7.518;2022-08-21T08:43:15;19.30;58.10
10057;DHT22;5068;51.286;7.518;2022-08-21T08:44:57;19.40;57.70
10057;DHT22;5068;51.286;7.518;2022-08-21T08:46:39;19.40;56.90
10057;DHT22;5068;51.286;7.518;2022-08-21T08:50:32;19.60;56.70
10057;DHT22;5068;51.286;7.518;2022-08-21T08:52:18;19.80;56.30
10057;DHT22;5068;51.286;7.518;2022-08-21T08:53:59;19.90;56.20
10057;DHT22;5068;51.286;7.518;2022-08-21T08:55:37;20.00;55.90
10057;DHT22;5068;51.286;7.518;2022-08-21T08:57:16;20.00;55.20
10057;DHT22;5068;51.286;7.518;2022-08-21T08:59:05;20.10;54.50
10057;DHT22;5068;51.286;7.518;2022-08-21T09:00:47;20.20;54.40
10057;DHT22;5068;51.286;7.518;2022-08-21T09:02:23;20.20;54.10
10057;DHT22;5068;51.286;7.518;2022-08-21T09:03:59;20.30;53.90
10057;DHT22;5068;51.286;7.518;2022-08-21T09:05:42;20.30;54.40
10057;DHT22;5068;51.286;7.518;2022-08-21T09:07:30;20.40;53.00
10057;DHT22;5068;51.286;7.518;2022-08-21T09:09:22;20.40;52.80
10057;DHT22;5068;51.286;7.518;2022-08-21T09:11:12;20.50;52.10
10057;DHT22;5068;51.286;7.518;2022-08-21T09:12:59;20.50;51.90
10057;DHT22;5068;51.286;7.518;2022-08-21T09:15:01;20.50;51.90
10057;DHT22;5068;51.286;7.518;2022-08-21T09:16:48;20.60;51.80
10057;DHT22;5068;51.286;7.518;2022-08-21T09:18:41;20.60;51.60
10057;DHT22;5068;51.286;7.518;2022-08-21T09:20:37;20.60;51.10
10057;DHT22;5068;51.286;7.518;2022-08-21T09:22:23;20.60;51.50
10057;DHT22;5068;51.286;7.518;2022-08-21T09:24:20;20.70;51.40
10057;DHT22;5068;51.286;7.518;2022-08-21T09:26:12;20.70;50.90
10057;DHT22;5068;51.286;7.518;2022-08-21T09:27:48;20.80;50.90
10057;DHT22;5068;51.286;7.518;2022-08-21T09:29:24;20.80;50.90
10057;DHT22;5068;51.286;7.518;2022-08-21T09:31:07;20.90;50.50
10057;DHT22;5068;51.286;7.518;2022-08-21T09:32:45;20.80;50.50
10057;DHT22;5068;51.286;7.518;2022-08-21T09:34:25;20.90;50.00
10057;DHT22;5068;51.286;7.518;2022-08-21T09:36:04;21.00;50.10
10057;DHT22;5068;51.286;7.518;2022-08-21T09:37:50;21.00;50.00
10057;DHT22;5068;51.286;7.518;2022-08-21T09:39:29;21.10;49.20
10057;DHT22;5068;51.286;7.518;2022-08-21T09:41:11;21.10;49.30
10057;DHT22;5068;51.286;7.518;2022-08-21T09:42:54;21.20;49.30
10057;DHT22;5068;51.286;7.518;2022-08-21T09:44:32;21.30;48.40
10057;DHT22;5068;51.286;7.518;2022-08-21T09:46:20;21.30;48.40
10057;DHT22;5068;51.286;7.518;2022-08-21T09:48:09;21.40;47.90
10057;DHT22;5068;51.286;7.518;2022-08-21T09:49:50;21.40;47.50
10057;DHT22;5068;51.286;7.518;2022-08-21T09:51:28;21.50;48.10
10057;DHT22;5068;51.286;7.518;2022-08-21T09:53:16;21.50;47.20
10057;DHT22;5068;51.286;7.518;2022-08-21T09:54:54;21.60;46.60
10057;DHT22;5068;51.286;7.518;2022-08-21T09:56:39;21.70;47.30
10057;DHT22;5068;51.286;7.518;2022-08-21T09:58:46;21.80;46.70
10057;DHT22;5068;51.286;7.518;2022-08-21T10:00:31;21.80;46.70
10057;DHT22;5068;51.286;7.518;2022-08-21T10:02:26;21.90;46.40
10057;DHT22;5068;51.286;7.518;2022-08-21T10:04:04;22.00;45.20
10057;DHT22;5068;51.286;7.518;2022-08-21T10:05:53;22.00;46.10
10057;DHT22;5068;51.286;7.518;2022-08-21T10:07:35;22.10;45.20
10057;DHT22;5068;51.286;7.518;2022-08-21T10:09:12;22.10;45.80
10057;DHT22;5068;51.286;7.518;2022-08-21T10:10:55;22.20;45.70
10057;DHT22;5068;51.286;7.518;2022-08-21T10:12:42;22.20;45.30
10057;DHT22;5068;51.286;7.518;2022-08-21T10:14:42;22.30;44.50
10057;DHT22;5068;51.286;7.518;2022-08-21T10:16:30;22.30;44.40
10057;DHT22;5068;51.286;7.518;2022-08-21T10:18:21;22.30;45.30
10057;DHT22;5068;51.286;7.518;2022-08-21T10:20:06;22.40;44.70
10057;DHT22;5068;51.286;7.518;2022-08-21T10:21:55;22.40;44.60
10057;DHT22;5068;51.286;7.518;2022-08-21T10:23:54;22.50;44.30
10057;DHT22;5068;51.286;7.518;2022-08-21T10:25:37;22.50;44.50
10057;DHT22;5068;51.286;7.518;2022-08-21T10:27:42;22.60;44.20
10057;DHT22;5068;51.286;7.518;2022-08-21T10:29:39;22.70;44.40
10057;DHT22;5068;51.286;7.518;2022-08-21T10:31:32;22.70;43.40
10057;DHT22;5068;51.286;7.518;2022-08-21T10:33:33;22.80;44.60